Time;durP1;ratioP1;P1;durP2;ratioP2;P2;SDS_P1;SDS_P2;PMS_P1;PMS_P2;Temp;Humidity;BMP_temperature;BMP_pressure;BME280_temperature;BME280_humidity;BME280_pressure;Samples;Min_cycle;Max_cycle;Signal;HPM_P1;HPM_P2
2022/12/06 00:01:12;;;;;;;16.00;6.43;;;;;;;;;;5021896;28;20549;-78
2022/12/06 00:03:39;;;;;;;17.00;6.72;;;;;;;;;;5024171;28;20052;-78
2022/12/06 00:06:07;;;;;;;23.17;8.32;;;;;;;;;;5024221;28;20476;-76
2022/12/06 00:08:33;;;;;;;15.35;6.25;;;;;;;;;;5020119;28;20071;-78
2022/12/06 00:11:13;;;;;;;13.40;6.50;;;;;;;;;;5021374;28;20099;-77
2022/12/06 00:13:39;;;;;;;12.45;6.78;;;;;;;;;;5012990;28;20080;-77
2022/12/06 00:16:08;;;;;;;16.38;6.15;;;;;;;;;;5019779;28;20030;-77
2022/12/06 00:18:35;;;;;;;16.80;6.13;;;;;;;;;;5019836;28;20072;-77
2022/12/06 00:21:08;;;;;;;12.80;6.00;;;;;;;;;;5024553;28;20025;-77
2022/12/06 00:23:44;;;;;;;15.23;6.90;;;;;;;;;;5022453;28;20041;-78
2022/12/06 00:26:09;;;;;;;15.45;6.63;;;;;;;;;;5022551;28;20033;-77
2022/12/06 00:28:36;;;;;;;13.35;6.65;;;;;;;;;;5022919;28;20064;-77
2022/12/06 00:31:06;;;;;;;12.00;5.82;;;;;;;;;;5029374;28;20045;-78
2022/12/06 00:33:33;;;;;;;12.80;6.32;;;;;;;;;;5023505;28;20092;-77
2022/12/06 00:36:01;;;;;;;16.30;6.53;;;;;;;;;;5024413;28;20022;-77
2022/12/06 00:38:28;;;;;;;15.25;5.68;;;;;;;;;;5023274;28;20409;-78
2022/12/06 00:41:11;;;;;;;13.40;5.43;;;;;;;;;;5029507;28;20103;-78
2022/12/06 00:43:37;;;;;;;10.15;5.55;;;;;;;;;;5028431;28;20057;-77
2022/12/06 00:46:05;;;;;;;13.15;5.75;;;;;;;;;;5027387;28;20559;-78
2022/12/06 00:48:31;;;;;;;14.23;5.22;;;;;;;;;;5027821;28;20480;-78
2022/12/06 00:50:57;;;;;;;14.75;6.03;;;;;;;;;;5024555;28;20112;-77
2022/12/06 00:53:23;;;;;;;16.50;7.28;;;;;;;;;;5028351;28;20097;-78
2022/12/06 00:55:49;;;;;;;12.02;5.18;;;;;;;;;;5027244;28;20099;-77
2022/12/06 00:58:15;;;;;;;14.32;4.93;;;;;;;;;;5027028;28;20033;-77
2022/12/06 01:00:41;;;;;;;14.63;6.38;;;;;;;;;;5026911;28;20511;-78
2022/12/06 01:03:07;;;;;;;13.05;5.00;;;;;;;;;;5028324;28;20033;-78
2022/12/06 01:05:33;;;;;;;9.98;4.78;;;;;;;;;;5027846;28;20111;-78
2022/12/06 01:07:59;;;;;;;12.10;5.53;;;;;;;;;;5027856;28;20458;-78
2022/12/06 01:10:24;;;;;;;13.07;4.95;;;;;;;;;;5026842;28;20042;-78
2022/12/06 01:12:49;;;;;;;11.98;5.40;;;;;;;;;;5026762;28;20061;-78
2022/12/06 01:15:15;;;;;;;10.02;4.75;;;;;;;;;;5027060;28;20037;-77
2022/12/06 01:17:40;;;;;;;14.93;5.07;;;;;;;;;;5028112;28;20028;-77
2022/12/06 01:20:06;;;;;;;10.75;5.15;;;;;;;;;;5027696;28;20096;-78
2022/12/06 01:22:32;;;;;;;11.88;5.00;;;;;;;;;;5027582;28;20116;-78
2022/12/06 01:24:57;;;;;;;12.13;5.15;;;;;;;;;;5028448;28;20184;-77
2022/12/06 01:27:22;;;;;;;9.75;4.80;;;;;;;;;;5027810;28;20116;-77
2022/12/06 01:29:48;;;;;;;10.75;4.68;;;;;;;;;;5027278;28;20025;-77
2022/12/06 01:32:13;;;;;;;12.57;5.70;;;;;;;;;;5027226;28;20521;-77
2022/12/06 01:34:38;;;;;;;8.68;4.50;;;;;;;;;;5027838;28;20052;-77
2022/12/06 01:37:04;;;;;;;13.77;4.90;;;;;;;;;;5025940;28;20033;-77
2022/12/06 01:39:29;;;;;;;10.57;5.05;;;;;;;;;;5020420;28;20103;-78
2022/12/06 01:41:55;;;;;;;14.55;4.70;;;;;;;;;;5026089;28;20017;-77
2022/12/06 01:44:42;;;;;;;9.82;4.53;;;;;;;;;;5026739;28;20078;-77
2022/12/06 01:47:23;;;;;;;11.18;4.80;;;;;;;;;;5027924;28;20625;-77
2022/12/06 01:49:54;;;;;;;12.73;4.82;;;;;;;;;;5021048;28;20043;-77
2022/12/06 01:52:24;;;;;;;10.65;4.30;;;;;;;;;;5021786;28;20409;-78
2022/12/06 01:54:50;;;;;;;13.25;5.80;;;;;;;;;;5012262;28;20030;-78
2022/12/06 01:57:16;;;;;;;11.00;5.22;;;;;;;;;;5022421;28;20041;-77
2022/12/06 01:59:42;;;;;;;11.40;4.95;;;;;;;;;;5024644;28;20022;-77
2022/12/06 02:02:08;;;;;;;16.92;5.55;;;;;;;;;;5026503;28;20418;-77
2022/12/06 02:04:33;;;;;;;13.80;5.97;;;;;;;;;;5027711;28;20032;-78
2022/12/06 02:06:59;;;;;;;11.40;4.97;;;;;;;;;;5026420;28;20066;-78
2022/12/06 02:09:27;;;;;;;10.18;4.78;;;;;;;;;;5026046;28;20041;-78
2022/12/06 02:11:52;;;;;;;11.50;5.28;;;;;;;;;;5019485;28;20109;-78
2022/12/06 02:14:22;;;;;;;13.40;5.70;;;;;;;;;;5025084;28;20183;-77
2022/12/06 02:17:09;;;;;;;14.40;5.60;;;;;;;;;;5026226;28;20870;-78
2022/12/06 02:19:53;;;;;;;15.38;5.57;;;;;;;;;;5025400;28;20026;-77
2022/12/06 02:22:24;;;;;;;14.57;5.78;;;;;;;;;;5025120;28;20055;-78
2022/12/06 02:25:35;;;;;;;16.00;5.18;;;;;;;;;;5023807;28;20043;-77
2022/12/06 02:28:09;;;;;;;13.13;5.70;;;;;;;;;;5023857;28;20052;-78
2022/12/06 02:30:42;;;;;;;12.75;5.43;;;;;;;;;;5014450;28;20033;-77
2022/12/06 02:33:17;;;;;;;11.48;5.32;;;;;;;;;;5025646;28;20029;-77
2022/12/06 02:36:00;;;;;;;18.95;6.80;;;;;;;;;;5026790;28;20534;-77
2022/12/06 02:38:37;;;;;;;13.35;5.95;;;;;;;;;;5027084;28;20033;-77
2022/12/06 02:41:11;;;;;;;15.38;5.82;;;;;;;;;;5021167;28;20400;-77
2022/12/06 02:43:39;;;;;;;;;;;;;;;;;;5016427;28;20772;-78
2022/12/06 02:46:05;;;;;;;14.15;5.43;;;;;;;;;;5019773;28;19917;-78
2022/12/06 02:48:32;;;;;;;14.70;5.95;;;;;;;;;;5023523;28;20411;-77
2022/12/06 02:51:02;;;;;;;16.10;5.95;;;;;;;;;;5012512;28;20029;-77
2022/12/06 02:53:30;;;;;;;16.95;6.38;;;;;;;;;;5026810;28;20100;-77
2022/12/06 02:55:56;;;;;;;14.65;5.75;;;;;;;;;;5026361;28;20029;-78
2022/12/06 02:58:22;;;;;;;15.60;6.28;;;;;;;;;;5025020;28;20083;-77
2022/12/06 03:01:00;;;;;;;13.35;5.72;;;;;;;;;;5025906;28;20649;-77
2022/12/06 03:03:46;;;;;;;15.55;7.00;;;;;;;;;;5024507;28;20116;-78
2022/12/06 03:06:34;;;;;;;16.02;6.85;;;;;;;;;;5029773;28;20521;-77
2022/12/06 03:09:24;;;;;;;14.07;6.28;;;;;;;;;;5025672;28;20099;-78
2022/12/06 03:12:16;;;;;;;12.65;5.78;;;;;;;;;;5024951;28;20018;-78
2022/12/06 03:14:42;;;;;;;15.35;6.60;;;;;;;;;;5038068;28;20056;-78
2022/12/06 03:17:22;;;;;;;12.13;5.00;;;;;;;;;;5026004;28;20064;-77
2022/12/06 03:19:55;;;;;;;14.63;5.47;;;;;;;;;;5025845;28;20112;-77
2022/12/06 03:22:28;;;;;;;12.82;6.05;;;;;;;;;;5023489;28;20033;-78
2022/12/06 03:24:54;;;;;;;15.80;6.10;;;;;;;;;;5021870;28;20034;-78
2022/12/06 03:27:21;;;;;;;14.07;5.95;;;;;;;;;;5025596;28;20036;-78
2022/12/06 03:29:52;;;;;;;13.38;5.43;;;;;;;;;;5023483;28;20053;-77
2022/12/06 03:32:21;;;;;;;11.80;5.10;;;;;;;;;;5020909;28;20132;-77
2022/12/06 03:34:51;;;;;;;17.15;6.20;;;;;;;;;;5047393;28;20033;-77
2022/12/06 03:37:20;;;;;;;14.27;6.05;;;;;;;;;;5013923;28;20041;-77
2022/12/06 03:39:52;;;;;;;14.80;5.82;;;;;;;;;;5023781;28;20029;-78
2022/12/06 03:42:18;;;;;;;16.25;6.38;;;;;;;;;;5024907;28;20034;-78
2022/12/06 03:44:44;;;;;;;13.35;5.35;;;;;;;;;;5023220;28;20017;-77
2022/12/06 03:47:25;;;;;;;17.05;6.43;;;;;;;;;;5025224;28;20037;-77
2022/12/06 03:49:56;;;;;;;13.45;5.53;;;;;;;;;;5024253;28;20060;-77
2022/12/06 03:52:23;;;;;;;15.93;6.18;;;;;;;;;;5025321;28;20061;-77
2022/12/06 03:54:48;;;;;;;14.23;6.10;;;;;;;;;;5034204;28;20101;-77
2022/12/06 03:57:14;;;;;;;14.23;5.43;;;;;;;;;;5025835;28;20195;-78
2022/12/06 03:59:39;;;;;;;13.10;5.30;;;;;;;;;;5024834;28;20021;-78
2022/12/06 04:02:04;;;;;;;15.77;6.07;;;;;;;;;;5025282;28;20087;-77
2022/12/06 04:04:30;;;;;;;12.23;5.95;;;;;;;;;;5029156;28;20037;-77
2022/12/06 04:06:55;;;;;;;16.35;6.72;;;;;;;;;;5044348;28;20045;-78
2022/12/06 04:12:59;;;;;;;15.48;5.57;;;;;;;;;;5025681;28;20086;-78
2022/12/06 04:14:50;;;;;;;12.88;5.05;;;;;;;;;;5029625;28;20017;-77
2022/12/06 04:19:59;;;;;;;18.15;6.40;;;;;;;;;;5028975;28;20497;-78
2022/12/06 04:25:08;;;;;;;;;;;;;;;;;;5011216;28;20100;-78
2022/12/06 04:38:38;;;;;;;10.90;4.63;;;;;;;;;;5029491;28;20044;-78
2022/12/06 04:41:04;;;;;;;12.27;5.60;;;;;;;;;;5016322;28;20042;-78
2022/12/06 04:43:41;;;;;;;11.85;5.30;;;;;;;;;;5024161;28;20041;-78
2022/12/06 04:46:11;;;;;;;14.43;5.50;;;;;;;;;;5029100;28;20041;-78
2022/12/06 04:48:37;;;;;;;10.52;5.03;;;;;;;;;;5027158;28;20068;-77
2022/12/06 04:51:03;;;;;;;12.38;5.05;;;;;;;;;;5020097;28;20021;-78
2022/12/06 04:53:28;;;;;;;16.05;5.85;;;;;;;;;;5028286;28;20032;-77
2022/12/06 04:55:53;;;;;;;12.52;5.55;;;;;;;;;;5028111;28;20111;-77
2022/12/06 04:58:19;;;;;;;12.88;5.60;;;;;;;;;;5029392;28;20034;-78
2022/12/06 05:00:44;;;;;;;14.43;5.70;;;;;;;;;;5028470;28;20028;-78
2022/12/06 05:03:13;;;;;;;17.38;5.43;;;;;;;;;;5028405;28;20026;-77
2022/12/06 05:05:39;;;;;;;14.65;5.45;;;;;;;;;;5027400;28;20074;-78
2022/12/06 05:08:05;;;;;;;13.90;6.22;;;;;;;;;;5026967;28;20414;-77
2022/12/06 05:10:31;;;;;;;17.50;6.15;;;;;;;;;;5023435;28;20044;-77
2022/12/06 05:12:56;;;;;;;17.35;5.65;;;;;;;;;;5019298;28;20026;-78
2022/12/06 05:15:21;;;;;;;14.82;5.18;;;;;;;;;;5025679;28;20034;-78
2022/12/06 05:17:46;;;;;;;14.93;5.40;;;;;;;;;;5028167;28;20017;-77
2022/12/06 05:20:15;;;;;;;14.32;5.93;;;;;;;;;;5026551;28;20116;-77
2022/12/06 05:22:40;;;;;;;15.48;5.75;;;;;;;;;;5035846;28;20056;-77
2022/12/06 05:25:06;;;;;;;15.73;5.68;;;;;;;;;;5027660;28;20064;-78
2022/12/06 05:27:31;;;;;;;11.98;5.65;;;;;;;;;;5026033;28;20060;-77
2022/12/06 05:29:57;;;;;;;17.40;5.90;;;;;;;;;;5024092;28;20816;-77
2022/12/06 05:32:22;;;;;;;16.25;5.72;;;;;;;;;;5028825;28;20079;-77
2022/12/06 05:34:47;;;;;;;15.05;5.68;;;;;;;;;;5028447;28;20116;-77
2022/12/06 05:37:13;;;;;;;20.00;5.95;;;;;;;;;;5026641;28;20080;-78
2022/12/06 05:39:38;;;;;;;18.35;6.72;;;;;;;;;;5023786;28;20030;-78
2022/12/06 05:42:03;;;;;;;18.65;6.30;;;;;;;;;;5026314;28;20025;-77
2022/12/06 05:44:29;;;;;;;14.80;6.07;;;;;;;;;;5027181;28;20013;-77
2022/12/06 05:46:54;;;;;;;14.85;5.18;;;;;;;;;;5022744;28;20034;-77
2022/12/06 05:49:19;;;;;;;16.40;6.45;;;;;;;;;;5025857;28;20040;-78
2022/12/06 05:51:45;;;;;;;16.33;6.45;;;;;;;;;;5016393;28;20025;-77
2022/12/06 05:54:10;;;;;;;16.75;6.07;;;;;;;;;;5025936;28;20056;-78
2022/12/06 05:56:35;;;;;;;14.23;5.63;;;;;;;;;;5020879;28;20079;-78
2022/12/06 05:59:02;;;;;;;15.80;6.50;;;;;;;;;;5025165;28;20040;-78
2022/12/06 06:01:27;;;;;;;15.38;5.70;;;;;;;;;;5027849;28;20025;-78
2022/12/06 06:03:52;;;;;;;24.98;9.55;;;;;;;;;;5020910;28;20079;-78
2022/12/06 06:06:18;;;;;;;16.85;6.13;;;;;;;;;;5029996;28;20123;-78
2022/12/06 06:08:43;;;;;;;12.68;4.82;;;;;;;;;;5028366;28;20022;-78
2022/12/06 06:11:08;;;;;;;11.40;4.70;;;;;;;;;;5025244;28;20030;-78
2022/12/06 06:13:34;;;;;;;13.52;5.53;;;;;;;;;;5025419;28;20125;-78
2022/12/06 06:15:59;;;;;;;11.68;5.72;;;;;;;;;;5021569;28;20033;-78
2022/12/06 06:18:24;;;;;;;15.15;5.55;;;;;;;;;;5023311;28;20049;-78
2022/12/06 06:20:56;;;;;;;16.42;5.63;;;;;;;;;;5027898;28;20028;-78
2022/12/06 06:23:21;;;;;;;18.85;6.78;;;;;;;;;;5025048;28;20056;-77
2022/12/06 06:25:46;;;;;;;18.00;6.05;;;;;;;;;;5023913;28;20067;-77
2022/12/06 06:28:12;;;;;;;13.95;5.10;;;;;;;;;;5024502;28;20612;-78
2022/12/06 06:30:37;;;;;;;23.77;6.45;;;;;;;;;;5027576;28;20117;-78
2022/12/06 06:33:03;;;;;;;18.45;6.70;;;;;;;;;;5024576;28;20084;-77
2022/12/06 06:35:28;;;;;;;21.13;6.88;;;;;;;;;;5023220;28;20460;-78
2022/12/06 06:37:53;;;;;;;21.83;6.90;;;;;;;;;;5026604;28;20184;-77
2022/12/06 06:40:19;;;;;;;23.70;7.78;;;;;;;;;;5024887;28;20037;-77
2022/12/06 06:42:44;;;;;;;18.95;7.75;;;;;;;;;;5023759;28;20755;-77
2022/12/06 06:45:10;;;;;;;18.42;7.38;;;;;;;;;;5042138;28;20044;-77
2022/12/06 06:47:35;;;;;;;19.73;7.30;;;;;;;;;;5024803;28;20024;-78
2022/12/06 06:50:00;;;;;;;18.77;8.43;;;;;;;;;;5023529;28;20527;-78
2022/12/06 06:52:26;;;;;;;17.73;7.30;;;;;;;;;;5022192;28;20631;-78
2022/12/06 06:54:51;;;;;;;20.27;7.47;;;;;;;;;;5041302;28;20191;-78
2022/12/06 06:57:17;;;;;;;18.83;7.07;;;;;;;;;;5026061;28;20033;-78
2022/12/06 06:59:43;;;;;;;22.77;8.73;;;;;;;;;;5024952;28;20021;-78
2022/12/06 07:02:11;;;;;;;23.17;8.05;;;;;;;;;;5026535;28;20503;-78
2022/12/06 07:04:37;;;;;;;22.20;7.10;;;;;;;;;;5026456;28;20044;-78
2022/12/06 07:07:02;;;;;;;20.17;8.68;;;;;;;;;;5022480;28;20041;-78
2022/12/06 07:09:27;;;;;;;21.65;7.55;;;;;;;;;;5024807;28;20033;-78
2022/12/06 07:11:53;;;;;;;17.48;6.78;;;;;;;;;;5024766;28;20104;-78
2022/12/06 07:14:18;;;;;;;20.20;8.38;;;;;;;;;;5033451;28;20034;-78
2022/12/06 07:16:43;;;;;;;19.15;7.75;;;;;;;;;;5020441;28;20790;-77
2022/12/06 07:19:09;;;;;;;20.42;8.40;;;;;;;;;;5020962;28;20030;-79
2022/12/06 07:21:34;;;;;;;22.42;7.60;;;;;;;;;;5022433;28;20091;-75
2022/12/06 07:24:00;;;;;;;20.38;7.63;;;;;;;;;;5021962;28;20036;-78
2022/12/06 07:26:27;;;;;;;20.10;7.55;;;;;;;;;;5015009;28;20113;-78
2022/12/06 07:28:55;;;;;;;17.50;7.40;;;;;;;;;;5012477;28;20072;-77
2022/12/06 07:31:25;;;;;;;22.15;7.95;;;;;;;;;;5025736;28;20579;-78
2022/12/06 07:33:56;;;;;;;21.23;8.02;;;;;;;;;;5020937;28;20060;-77
2022/12/06 07:36:22;;;;;;;21.08;7.72;;;;;;;;;;5021456;28;20033;-77
2022/12/06 07:38:50;;;;;;;22.23;7.80;;;;;;;;;;5015740;28;20410;-77
2022/12/06 07:46:47;;;;;;;18.10;8.25;;;;;;;;;;5015777;28;20061;-77
2022/12/06 07:49:14;;;;;;;21.80;8.75;;;;;;;;;;5015881;28;20095;-78
2022/12/06 07:51:40;;;;;;;29.00;9.90;;;;;;;;;;5016546;28;20030;-78
2022/12/06 07:54:06;;;;;;;23.00;8.18;;;;;;;;;;5019926;28;20104;-80
2022/12/06 07:56:31;;;;;;;21.98;8.25;;;;;;;;;;5024626;28;20064;-78
2022/12/06 07:58:57;;;;;;;23.30;8.27;;;;;;;;;;5036092;28;20039;-79
2022/12/06 08:01:22;;;;;;;24.48;8.52;;;;;;;;;;5025452;28;20048;-78
2022/12/06 08:03:48;;;;;;;25.70;8.45;;;;;;;;;;5021104;28;20469;-78
2022/12/06 08:06:14;;;;;;;23.73;8.20;;;;;;;;;;5020856;28;20530;-78
2022/12/06 08:08:39;;;;;;;19.92;7.47;;;;;;;;;;5019309;28;20037;-78
2022/12/06 08:11:06;;;;;;;20.75;6.03;;;;;;;;;;5013267;28;20120;-78
2022/12/06 08:13:32;;;;;;;18.77;6.95;;;;;;;;;;5022621;28;20741;-79
2022/12/06 08:15:58;;;;;;;19.77;6.35;;;;;;;;;;5023073;28;20116;-78
2022/12/06 08:18:24;;;;;;;20.55;7.25;;;;;;;;;;5039455;28;20163;-79
2022/12/06 08:20:49;;;;;;;15.18;7.05;;;;;;;;;;5019608;28;20021;-79
2022/12/06 08:23:15;;;;;;;24.67;8.82;;;;;;;;;;5022232;28;20041;-78
2022/12/06 08:25:40;;;;;;;25.73;7.70;;;;;;;;;;5024928;28;20037;-79
2022/12/06 08:28:05;;;;;;;19.80;7.95;;;;;;;;;;5025366;28;20038;-79
2022/12/06 08:30:31;;;;;;;23.25;7.47;;;;;;;;;;5025687;28;20037;-79
2022/12/06 08:32:56;;;;;;;20.85;7.43;;;;;;;;;;5025549;28;20491;-79
2022/12/06 08:35:22;;;;;;;23.25;7.80;;;;;;;;;;5020575;28;20028;-78
2022/12/06 08:37:47;;;;;;;22.83;8.30;;;;;;;;;;5021827;28;20630;-79
2022/12/06 08:40:12;;;;;;;24.95;7.55;;;;;;;;;;5016302;28;20045;-78
2022/12/06 08:42:38;;;;;;;25.58;8.05;;;;;;;;;;5023932;28;20120;-78
2022/12/06 08:45:04;;;;;;;25.30;7.53;;;;;;;;;;5024139;28;20116;-78
2022/12/06 08:47:29;;;;;;;27.83;8.60;;;;;;;;;;5022623;28;20430;-78
2022/12/06 08:49:57;;;;;;;20.33;7.13;;;;;;;;;;5019798;28;20126;-78
2022/12/06 08:52:22;;;;;;;27.02;8.23;;;;;;;;;;5025603;28;20044;-77
2022/12/06 08:54:47;;;;;;;21.40;6.78;;;;;;;;;;5026829;28;20034;-78
2022/12/06 08:57:13;;;;;;;13.00;6.28;;;;;;;;;;5025931;28;20057;-78
2022/12/06 08:59:38;;;;;;;20.52;7.20;;;;;;;;;;5025529;28;20029;-78
2022/12/06 09:02:04;;;;;;;20.20;7.32;;;;;;;;;;5026077;28;20095;-78
2022/12/06 09:04:29;;;;;;;19.15;7.53;;;;;;;;;;5027592;28;20124;-78
2022/12/06 09:06:54;;;;;;;19.02;6.10;;;;;;;;;;5013772;28;20037;-78
2022/12/06 09:09:20;;;;;;;16.35;6.10;;;;;;;;;;5027102;28;20041;-78
2022/12/06 09:11:47;;;;;;;22.63;6.68;;;;;;;;;;5025502;28;20059;-77
2022/12/06 09:14:15;;;;;;;21.38;7.18;;;;;;;;;;5023253;28;20069;-77
2022/12/06 09:16:42;;;;;;;24.45;7.88;;;;;;;;;;5021839;28;20036;-78
2022/12/06 09:19:09;;;;;;;15.05;5.35;;;;;;;;;;5029218;28;20065;-78
2022/12/06 09:21:38;;;;;;;20.73;6.43;;;;;;;;;;5027914;28;20090;-78
2022/12/06 09:24:03;;;;;;;16.75;6.15;;;;;;;;;;5026069;28;20494;-79
2022/12/06 09:26:29;;;;;;;15.52;5.97;;;;;;;;;;5028094;28;20041;-77
2022/12/06 09:28:55;;;;;;;15.23;6.78;;;;;;;;;;5025468;28;20041;-79
2022/12/06 09:31:21;;;;;;;19.10;7.43;;;;;;;;;;5023269;28;20061;-79
2022/12/06 09:33:46;;;;;;;18.15;6.47;;;;;;;;;;5028725;28;20056;-78
2022/12/06 09:36:17;;;;;;;18.63;6.25;;;;;;;;;;5027312;28;20041;-78
2022/12/06 09:38:44;;;;;;;17.83;7.03;;;;;;;;;;5027694;28;20026;-78
2022/12/06 09:41:47;;;;;;;17.05;6.68;;;;;;;;;;5026555;28;20021;-78
2022/12/06 09:44:22;;;;;;;22.35;7.50;;;;;;;;;;5026454;28;20481;-80
2022/12/06 09:47:11;;;;;;;16.67;6.22;;;;;;;;;;5021447;28;20829;-78
2022/12/06 09:50:07;;;;;;;19.80;6.47;;;;;;;;;;5019771;28;20184;-78
2022/12/06 09:52:50;;;;;;;16.23;6.30;;;;;;;;;;5014939;28;20106;-78
2022/12/06 09:55:16;;;;;;;;;;;;;;;;;;5028246;28;20045;-78
2022/12/06 09:58:00;;;;;;;18.37;6.33;;;;;;;;;;5024733;28;20343;-78
2022/12/06 10:00:38;;;;;;;14.55;5.90;;;;;;;;;;5013375;28;20626;-78
2022/12/06 10:03:12;;;;;;;19.10;6.70;;;;;;;;;;5025818;28;20545;-78
2022/12/06 10:06:00;;;;;;;18.77;6.55;;;;;;;;;;5022922;28;20056;-78
2022/12/06 10:08:44;;;;;;;13.98;6.05;;;;;;;;;;5022312;28;20140;-78
2022/12/06 10:11:31;;;;;;;12.13;5.22;;;;;;;;;;5010558;28;20032;-77
2022/12/06 10:14:18;;;;;;;13.10;5.88;;;;;;;;;;5009677;28;20080;-78
2022/12/06 10:17:13;;;;;;;19.38;5.75;;;;;;;;;;5022048;28;20423;-78
2022/12/06 10:19:57;;;;;;;17.13;6.30;;;;;;;;;;5016688;28;20053;-78
2022/12/06 10:22:48;;;;;;;14.52;5.20;;;;;;;;;;5015340;28;20100;-78
2022/12/06 10:25:40;;;;;;;17.15;5.38;;;;;;;;;;5019895;28;20136;-78
2022/12/06 10:28:21;;;;;;;16.42;5.03;;;;;;;;;;5022421;28;20043;-78
2022/12/06 10:30:51;;;;;;;13.50;5.00;;;;;;;;;;5021949;28;20072;-79
2022/12/06 10:33:28;;;;;;;14.10;5.03;;;;;;;;;;5015938;28;20125;-78
2022/12/06 10:36:02;;;;;;;13.52;4.63;;;;;;;;;;5022740;28;20053;-77
2022/12/06 10:38:52;;;;;;;12.43;5.60;;;;;;;;;;5025281;28;20029;-79
2022/12/06 10:41:27;;;;;;;14.30;6.00;;;;;;;;;;5026608;28;20010;-80
2022/12/06 10:43:54;;;;;;;12.65;5.93;;;;;;;;;;5019458;28;20049;-78
2022/12/06 10:49:31;;;;;;;12.07;5.97;;;;;;;;;;5018837;28;20091;-78
2022/12/06 10:52:23;;;;;;;13.77;5.68;;;;;;;;;;5020142;28;20032;-79
2022/12/06 10:55:08;;;;;;;17.55;7.13;;;;;;;;;;5017428;28;20033;-78
2022/12/06 10:57:50;;;;;;;16.02;6.40;;;;;;;;;;5022640;28;20144;-78
2022/12/06 11:00:19;;;;;;;18.27;7.28;;;;;;;;;;5016689;28;20030;-77
2022/12/06 11:02:56;;;;;;;18.42;7.25;;;;;;;;;;5022187;28;20037;-77
2022/12/06 11:05:31;;;;;;;22.25;7.18;;;;;;;;;;5025974;28;20124;-77
2022/12/06 11:08:09;;;;;;;22.42;7.63;;;;;;;;;;5023607;28;20017;-78
2022/12/06 11:10:35;;;;;;;19.65;7.43;;;;;;;;;;5021322;28;20596;-77
2022/12/06 11:13:16;;;;;;;23.10;8.27;;;;;;;;;;5020958;28;20713;-78
2022/12/06 11:15:50;;;;;;;21.98;7.38;;;;;;;;;;5014034;28;20092;-78
2022/12/06 11:18:16;;;;;;;16.60;7.40;;;;;;;;;;5024309;28;20041;-78
2022/12/06 11:21:03;;;;;;;21.02;7.55;;;;;;;;;;5023742;28;20060;-78
2022/12/06 11:23:44;;;;;;;20.25;7.95;;;;;;;;;;5023345;28;20096;-78
2022/12/06 11:26:34;;;;;;;18.27;8.15;;;;;;;;;;5027214;28;20030;-78
2022/12/06 11:29:08;;;;;;;19.85;7.72;;;;;;;;;;5020206;28;20033;-77
2022/12/06 11:31:44;;;;;;;16.52;7.15;;;;;;;;;;5025498;28;20017;-78
2022/12/06 11:34:18;;;;;;;17.15;6.53;;;;;;;;;;5026742;28;20036;-77
2022/12/06 11:36:44;;;;;;;17.13;6.97;;;;;;;;;;5018221;28;20395;-77
2022/12/06 11:39:13;;;;;;;17.50;7.32;;;;;;;;;;5024927;28;20411;-78
2022/12/06 11:41:38;;;;;;;16.40;7.43;;;;;;;;;;5022543;28;20033;-77
2022/12/06 11:44:05;;;;;;;16.63;6.70;;;;;;;;;;5016959;28;20083;-78
2022/12/06 11:46:30;;;;;;;16.85;7.22;;;;;;;;;;5022038;28;20075;-77
2022/12/06 11:49:11;;;;;;;21.40;8.25;;;;;;;;;;5014663;28;20042;-77
2022/12/06 11:51:36;;;;;;;24.30;9.05;;;;;;;;;;5013550;28;20025;-78
2022/12/06 11:54:14;;;;;;;20.65;7.80;;;;;;;;;;5024907;28;20035;-77
2022/12/06 11:56:39;;;;;;;19.42;7.85;;;;;;;;;;5017644;28;20087;-78
2022/12/06 11:59:24;;;;;;;23.40;8.15;;;;;;;;;;5015266;28;20514;-78
2022/12/06 12:01:53;;;;;;;16.55;7.78;;;;;;;;;;5024949;28;20088;-78
2022/12/06 12:04:34;;;;;;;20.10;8.38;;;;;;;;;;5024407;28;20039;-78
2022/12/06 12:07:04;;;;;;;21.00;8.77;;;;;;;;;;5026660;28;20088;-78
2022/12/06 12:09:34;;;;;;;23.13;8.30;;;;;;;;;;5012632;28;20042;-81
2022/12/06 12:12:04;;;;;;;20.42;7.68;;;;;;;;;;5017370;28;20072;-78
2022/12/06 12:14:37;;;;;;;17.25;7.15;;;;;;;;;;5025881;28;20033;-77
2022/12/06 12:17:10;;;;;;;22.45;8.23;;;;;;;;;;5007601;28;20521;-77
2022/12/06 12:19:48;;;;;;;17.33;6.90;;;;;;;;;;5014001;28;20024;-78
2022/12/06 12:22:41;;;;;;;15.70;7.55;;;;;;;;;;5023586;28;20046;-77
2022/12/06 12:25:18;;;;;;;17.77;7.72;;;;;;;;;;5017609;28;20527;-77
2022/12/06 12:27:50;;;;;;;19.05;7.53;;;;;;;;;;5023816;28;20052;-78
2022/12/06 12:30:39;;;;;;;19.95;8.85;;;;;;;;;;5027800;28;20068;-78
2022/12/06 12:33:04;;;;;;;23.92;9.32;;;;;;;;;;5026760;28;20045;-77
2022/12/06 12:35:34;;;;;;;19.35;8.82;;;;;;;;;;5024728;28;20108;-77
2022/12/06 12:38:03;;;;;;;21.15;9.63;;;;;;;;;;5020221;28;20051;-77
2022/12/06 12:40:45;;;;;;;20.52;9.25;;;;;;;;;;5026185;28;20021;-78
2022/12/06 12:43:10;;;;;;;19.17;7.40;;;;;;;;;;5028983;28;20029;-78
2022/12/06 12:45:39;;;;;;;17.35;8.75;;;;;;;;;;5026979;28;20056;-78
2022/12/06 12:48:23;;;;;;;20.27;8.43;;;;;;;;;;5025362;28;20049;-77
2022/12/06 12:50:53;;;;;;;19.58;9.60;;;;;;;;;;5026251;28;20044;-77
2022/12/06 12:53:39;;;;;;;11.98;6.18;;;;;;;;;;5025824;28;20030;-77
2022/12/06 12:56:13;;;;;;;16.48;7.13;;;;;;;;;;5027341;28;20017;-78
2022/12/06 12:58:39;;;;;;;17.05;6.10;;;;;;;;;;5023007;28;20235;-77
2022/12/06 13:01:25;;;;;;;13.20;6.28;;;;;;;;;;5022956;28;20052;-76
2022/12/06 13:03:56;;;;;;;15.02;5.47;;;;;;;;;;5029563;28;20443;-77
2022/12/06 13:06:37;;;;;;;12.50;5.97;;;;;;;;;;5027001;28;20030;-78
2022/12/06 13:09:04;;;;;;;14.70;5.63;;;;;;;;;;5024266;28;20042;-78
2022/12/06 13:11:30;;;;;;;11.82;5.50;;;;;;;;;;5018221;28;20701;-76
2022/12/06 13:13:58;;;;;;;13.85;5.07;;;;;;;;;;5024660;28;20025;-77
2022/12/06 13:16:31;;;;;;;11.18;5.10;;;;;;;;;;5022421;28;20463;-78
2022/12/06 13:18:57;;;;;;;10.00;5.15;;;;;;;;;;5023795;28;20518;-78
2022/12/06 13:21:24;;;;;;;11.10;4.70;;;;;;;;;;5021383;28;20660;-78
2022/12/06 13:23:54;;;;;;;14.18;5.45;;;;;;;;;;5022683;28;20036;-78
2022/12/06 13:26:20;;;;;;;15.75;5.40;;;;;;;;;;5024639;28;20030;-77
2022/12/06 13:29:14;;;;;;;14.55;6.07;;;;;;;;;;5023640;28;20091;-78
2022/12/06 13:31:40;;;;;;;14.85;6.18;;;;;;;;;;5024433;28;20100;-78
2022/12/06 13:34:24;;;;;;;17.80;7.10;;;;;;;;;;5028750;28;20029;-77
2022/12/06 13:36:51;;;;;;;16.58;7.35;;;;;;;;;;5024518;28;20037;-78
2022/12/06 13:39:31;;;;;;;14.10;6.45;;;;;;;;;;5023695;28;20064;-77
2022/12/06 13:42:17;;;;;;;16.05;6.40;;;;;;;;;;5022185;28;20044;-78
2022/12/06 13:44:48;;;;;;;14.38;5.75;;;;;;;;;;5027261;28;20034;-77
2022/12/06 13:47:26;;;;;;;19.85;6.28;;;;;;;;;;5026957;28;20043;-77
2022/12/06 13:49:55;;;;;;;13.68;6.22;;;;;;;;;;5026796;28;20046;-77
2022/12/06 13:52:43;;;;;;;17.27;6.63;;;;;;;;;;5024730;28;20477;-77
2022/12/06 13:55:23;;;;;;;13.85;5.97;;;;;;;;;;5027000;28;20505;-77
2022/12/06 13:57:49;;;;;;;11.68;5.88;;;;;;;;;;5017722;28;20038;-78
2022/12/06 14:00:27;;;;;;;15.55;6.82;;;;;;;;;;5025428;28;20028;-77
2022/12/06 14:02:57;;;;;;;12.27;5.20;;;;;;;;;;5026866;28;20235;-77
2022/12/06 14:05:57;;;;;;;18.80;6.63;;;;;;;;;;5024802;28;20036;-77
2022/12/06 14:08:32;;;;;;;15.15;6.75;;;;;;;;;;5024500;28;20040;-78
2022/12/06 14:11:26;;;;;;;13.38;5.78;;;;;;;;;;5026047;28;20516;-78
2022/12/06 14:16:53;;;;;;;16.15;6.45;;;;;;;;;;5008074;28;20340;-76
2022/12/06 14:19:31;;;;;;;17.13;6.57;;;;;;;;;;5015941;28;20083;-77
2022/12/06 14:22:01;;;;;;;15.52;6.55;;;;;;;;;;5013326;28;20033;-78
2022/12/06 14:24:30;;;;;;;17.05;6.43;;;;;;;;;;5016307;28;20037;-77
2022/12/06 14:27:03;;;;;;;14.50;6.38;;;;;;;;;;5014773;28;20072;-77
2022/12/06 14:29:29;;;;;;;13.38;6.40;;;;;;;;;;5012897;28;20033;-78
2022/12/06 14:31:54;;;;;;;21.95;6.82;;;;;;;;;;5026239;28;20027;-82
2022/12/06 14:34:28;;;;;;;15.15;6.10;;;;;;;;;;5018741;28;20073;-78
2022/12/06 14:36:55;;;;;;;15.82;6.85;;;;;;;;;;5018240;28;20037;-77
2022/12/06 14:39:24;;;;;;;16.17;7.10;;;;;;;;;;5027505;28;20087;-78
2022/12/06 14:44:53;;;;;;;11.45;6.13;;;;;;;;;;5019487;28;20041;-78
2022/12/06 14:47:21;;;;;;;13.82;6.38;;;;;;;;;;5025977;28;20041;-77
2022/12/06 14:52:58;;;;;;;20.50;7.70;;;;;;;;;;5015307;28;20108;-77
2022/12/06 14:55:25;;;;;;;14.23;6.78;;;;;;;;;;5019026;28;20128;-77
2022/12/06 14:58:00;;;;;;;20.70;8.32;;;;;;;;;;5031007;28;20124;-78
2022/12/06 15:00:34;;;;;;;15.60;7.60;;;;;;;;;;5026112;28;20498;-78
2022/12/06 15:03:22;;;;;;;19.17;7.75;;;;;;;;;;5013776;28;20029;-78
2022/12/06 15:06:07;;;;;;;17.67;8.40;;;;;;;;;;5027477;28;20034;-78
2022/12/06 15:08:35;;;;;;;13.90;6.22;;;;;;;;;;5025210;28;20037;-78
2022/12/06 15:11:12;;;;;;;18.67;8.23;;;;;;;;;;5013789;28;20111;-77
2022/12/06 15:13:38;;;;;;;21.27;8.98;;;;;;;;;;5017245;28;20037;-79
2022/12/06 15:16:12;;;;;;;20.42;8.93;;;;;;;;;;5024610;28;20175;-79
2022/12/06 15:18:39;;;;;;;24.42;11.95;;;;;;;;;;5025037;28;20029;-79
2022/12/06 15:21:16;;;;;;;28.67;12.43;;;;;;;;;;5026392;28;20037;-78
2022/12/06 15:23:55;;;;;;;28.65;12.05;;;;;;;;;;5019112;28;20079;-78
2022/12/06 15:26:22;;;;;;;25.25;9.85;;;;;;;;;;5025637;28;20045;-78
2022/12/06 15:28:48;;;;;;;23.20;9.40;;;;;;;;;;5009694;28;20032;-78